Time;durP1;ratioP1;P1;durP2;ratioP2;P2;SDS_P1;SDS_P2;PMS_P1;PMS_P2;Temp;Humidity;BMP_temperature;BMP_pressure;BME280_temperature;BME280_humidity;BME280_pressure;Samples;Min_cycle;Max_cycle;Signal;HPM_P1;HPM_P2
2023/12/11 00:02:25;;;;;;;44.08;21.65;;;;;;;6.68;86.47;100072.81;5140616;27;20027;-67
2023/12/11 00:04:50;;;;;;;40.40;19.63;;;;;;;6.64;86.11;100062.69;5141350;27;20053;-66
2023/12/11 00:07:16;;;;;;;36.35;17.05;;;;;;;6.70;86.63;100072.69;5141296;27;20324;-63
2023/12/11 00:09:41;;;;;;;29.05;14.32;;;;;;;6.74;86.09;100084.63;5140960;27;20046;-64
2023/12/11 00:12:07;;;;;;;38.90;17.80;;;;;;;6.78;85.86;100090.47;5141340;27;20039;-64
2023/12/11 00:14:32;;;;;;;34.70;16.95;;;;;;;6.69;86.19;100092.06;5140922;27;20038;-66
2023/12/11 00:16:58;;;;;;;37.95;16.05;;;;;;;6.67;87.28;100089.56;5140832;27;20311;-66
2023/12/11 00:19:23;;;;;;;30.77;15.95;;;;;;;6.42;88.02;100095.19;5140396;27;20035;-63
2023/12/11 00:21:49;;;;;;;30.02;14.10;;;;;;;6.31;88.48;100090.00;5140195;27;20026;-66
2023/12/11 00:24:14;;;;;;;29.77;15.63;;;;;;;6.44;88.11;100102.97;5140832;27;20035;-64
2023/12/11 00:26:40;;;;;;;29.17;13.93;;;;;;;6.30;88.68;100102.31;5140438;27;20043;-66
2023/12/11 00:29:05;;;;;;;33.17;14.82;;;;;;;5.92;89.93;100113.28;5140106;27;20057;-64
2023/12/11 00:31:31;;;;;;;28.42;13.85;;;;;;;6.09;89.53;100109.28;5139575;27;20092;-64
2023/12/11 00:33:56;;;;;;;28.40;13.20;;;;;;;6.16;89.68;100120.16;5140255;27;20095;-67
2023/12/11 00:36:22;;;;;;;30.42;15.07;;;;;;;6.23;89.59;100109.00;5140373;27;20038;-64
2023/12/11 00:38:48;;;;;;;31.88;15.25;;;;;;;6.13;89.15;100118.59;5140112;27;20369;-66
2023/12/11 00:41:15;;;;;;;32.05;15.55;;;;;;;5.96;90.50;100112.09;5139434;27;20102;-64
2023/12/11 00:43:41;;;;;;;30.00;14.88;;;;;;;5.99;90.35;100103.94;5139454;27;20430;-66
2023/12/11 00:46:06;;;;;;;35.72;14.52;;;;;;;6.19;89.67;100104.13;5139704;27;20039;-63
2023/12/11 00:48:32;;;;;;;30.27;15.07;;;;;;;6.28;88.92;100092.88;5139168;27;20295;-64
2023/12/11 00:50:57;;;;;;;36.55;15.40;;;;;;;6.42;88.26;100097.00;5139873;27;20259;-66
2023/12/11 00:53:23;;;;;;;31.92;14.93;;;;;;;6.53;88.65;100091.69;5140083;27;20047;-65
2023/12/11 00:55:48;;;;;;;33.72;15.43;;;;;;;6.63;87.69;100085.53;5139932;27;20043;-64
2023/12/11 00:58:14;;;;;;;35.47;16.88;;;;;;;6.73;87.65;100085.59;5140276;27;20035;-66
2023/12/11 01:00:39;;;;;;;41.00;17.40;;;;;;;6.81;87.07;100082.31;5137980;27;20035;-66
2023/12/11 01:03:04;;;;;;;32.05;15.80;;;;;;;6.85;86.96;100073.19;5139895;27;20343;-66
2023/12/11 01:05:30;;;;;;;34.83;16.83;;;;;;;6.88;86.63;100075.56;5140413;27;20053;-67
2023/12/11 01:07:56;;;;;;;33.05;14.93;;;;;;;6.65;86.09;100075.69;5139763;27;20043;-66
2023/12/11 01:10:21;;;;;;;36.28;18.48;;;;;;;6.14;88.24;100080.00;5139236;27;20438;-64
2023/12/11 01:12:47;;;;;;;33.80;14.90;;;;;;;6.25;88.09;100066.84;5138852;27;20035;-64
2023/12/11 01:15:13;;;;;;;45.97;21.30;;;;;;;6.28;88.18;100054.28;5139470;27;20219;-66
2023/12/11 01:17:38;;;;;;;36.25;16.95;;;;;;;6.38;88.29;100044.66;5139422;27;20325;-66
2023/12/11 01:20:04;;;;;;;32.83;15.77;;;;;;;6.42;88.38;100037.34;5139167;27;20035;-64
2023/12/11 01:22:30;;;;;;;33.00;15.93;;;;;;;6.41;88.76;100033.03;5139346;27;20072;-64
2023/12/11 01:24:55;;;;;;;33.70;15.82;;;;;;;6.46;87.68;100035.28;5139042;27;20243;-66
2023/12/11 01:27:21;;;;;;;42.58;19.30;;;;;;;6.44;88.30;100040.66;5138914;27;20464;-66
2023/12/11 01:29:46;;;;;;;31.23;15.50;;;;;;;6.54;87.29;100036.31;5138134;27;20355;-66
2023/12/11 01:32:12;;;;;;;31.90;14.32;;;;;;;6.42;87.90;100032.06;5138468;27;20093;-63
2023/12/11 01:34:37;;;;;;;32.67;15.40;;;;;;;6.47;88.23;100035.16;5138757;27;20050;-64
2023/12/11 01:37:03;;;;;;;27.55;12.90;;;;;;;6.51;88.39;100035.72;5138475;27;20646;-63
2023/12/11 01:39:29;;;;;;;35.40;16.75;;;;;;;6.55;87.94;100026.63;5139435;27;20265;-65
2023/12/11 01:41:54;;;;;;;32.10;14.60;;;;;;;6.59;87.05;100031.50;5138968;27;20276;-64
2023/12/11 01:44:20;;;;;;;33.17;14.55;;;;;;;6.58;86.79;100029.00;5138973;27;20240;-64
2023/12/11 01:46:46;;;;;;;33.47;14.25;;;;;;;6.58;87.58;100027.19;5138524;27;20502;-66
2023/12/11 01:49:13;;;;;;;32.30;15.65;;;;;;;6.49;87.70;100019.25;5138967;27;20039;-63
2023/12/11 01:51:39;;;;;;;30.88;15.82;;;;;;;6.58;87.39;100018.47;5138481;27;20046;-63
2023/12/11 01:54:04;;;;;;;31.23;14.52;;;;;;;6.48;87.29;100017.56;5139396;27;20031;-65
2023/12/11 01:56:30;;;;;;;32.03;15.60;;;;;;;6.45;87.75;100021.28;5138918;27;20363;-65
2023/12/11 01:58:56;;;;;;;29.73;14.52;;;;;;;6.42;87.00;100028.63;5138571;27;20206;-64
2023/12/11 02:01:25;;;;;;;32.65;16.83;;;;;;;6.42;87.61;100028.63;5138558;27;20050;-66
2023/12/11 02:03:51;;;;;;;30.15;15.95;;;;;;;6.25;88.90;100035.28;5139161;27;20062;-64
2023/12/11 02:06:17;;;;;;;44.17;19.92;;;;;;;6.25;89.30;100033.47;5138771;27;20351;-64
2023/12/11 02:08:45;;;;;;;33.10;15.05;;;;;;;6.27;88.82;100039.44;5138212;27;20050;-64
2023/12/11 02:11:12;;;;;;;28.60;15.80;;;;;;;6.40;88.35;100036.63;5137857;27;20409;-64
2023/12/11 02:13:39;;;;;;;31.13;16.20;;;;;;;6.45;88.41;100034.44;5138695;27;20058;-66
2023/12/11 02:16:05;;;;;;;33.97;15.98;;;;;;;6.57;88.24;100032.59;5138006;27;20039;-64
2023/12/11 02:18:31;;;;;;;33.25;15.27;;;;;;;6.56;87.61;100037.00;5138277;27;20035;-64
2023/12/11 02:20:57;;;;;;;35.40;17.35;;;;;;;6.58;87.77;100037.72;5137914;27;20114;-66
2023/12/11 02:23:31;;;;;;;35.50;16.25;;;;;;;6.66;88.48;100037.91;5137501;27;20091;-66
2023/12/11 02:26:07;;;;;;;35.45;15.88;;;;;;;6.78;87.23;100037.81;5138161;27;20047;-66
2023/12/11 02:28:32;;;;;;;31.70;15.85;;;;;;;6.85;87.00;100044.22;5138116;27;20042;-66
2023/12/11 02:30:58;;;;;;;32.40;15.57;;;;;;;6.87;86.99;100037.88;5137123;27;20067;-66
2023/12/11 02:33:23;;;;;;;36.45;14.73;;;;;;;6.90;87.21;100042.03;5138070;27;20090;-66
2023/12/11 02:35:49;;;;;;;37.20;16.95;;;;;;;6.81;87.51;100032.31;5137418;27;20052;-64
2023/12/11 02:38:14;;;;;;;37.28;17.45;;;;;;;6.85;87.52;100038.97;5137461;27;20030;-64
2023/12/11 02:40:40;;;;;;;34.58;15.40;;;;;;;6.89;87.11;100038.56;5137688;27;20403;-64
2023/12/11 02:43:06;;;;;;;34.53;15.07;;;;;;;6.92;86.99;100034.84;5138044;27;20066;-67
2023/12/11 02:45:32;;;;;;;33.53;15.80;;;;;;;6.72;87.26;100029.47;5138565;27;20120;-66
2023/12/11 02:48:02;;;;;;;34.45;14.40;;;;;;;6.33;88.35;100022.31;5138385;27;20080;-63
2023/12/11 02:50:31;;;;;;;30.50;16.15;;;;;;;6.55;87.52;100029.25;5137726;27;20076;-66
2023/12/11 02:53:02;;;;;;;34.10;16.77;;;;;;;6.64;88.06;100025.84;5138483;27;20042;-66
2023/12/11 02:55:28;;;;;;;34.03;15.60;;;;;;;6.68;88.16;100029.88;5137947;27;20034;-64
2023/12/11 02:57:56;;;;;;;32.67;15.68;;;;;;;6.70;87.54;100031.41;5137270;27;20305;-66
2023/12/11 03:00:22;;;;;;;28.10;13.00;;;;;;;6.71;88.20;100037.50;5136722;27;20425;-66
2023/12/11 03:02:48;;;;;;;32.05;14.85;;;;;;;6.75;88.39;100035.44;5137116;27;20087;-66
2023/12/11 03:05:13;;;;;;;31.45;14.85;;;;;;;6.72;87.70;100029.47;5137117;27;20106;-66
2023/12/11 03:07:39;;;;;;;32.45;15.20;;;;;;;6.69;87.68;100037.63;5137169;27;20035;-64
2023/12/11 03:10:05;;;;;;;29.98;14.95;;;;;;;6.71;87.97;100040.13;5137093;27;20074;-66
2023/12/11 03:12:30;;;;;;;31.20;15.07;;;;;;;6.67;87.81;100036.94;5137485;27;20232;-65
2023/12/11 03:14:56;;;;;;;31.73;15.45;;;;;;;6.69;88.35;100031.53;5137265;27;20060;-66
2023/12/11 03:17:21;;;;;;;32.78;15.30;;;;;;;6.71;88.28;100029.63;5136685;27;20035;-63
2023/12/11 03:19:47;;;;;;;34.35;16.02;;;;;;;6.74;87.78;100039.88;5136799;27;20035;-66
2023/12/11 03:22:13;;;;;;;38.15;17.67;;;;;;;6.78;87.55;100037.81;5136952;27;20051;-64
2023/12/11 03:24:38;;;;;;;40.50;18.30;;;;;;;6.80;87.86;100039.34;5137774;27;20039;-66
2023/12/11 03:27:04;;;;;;;35.28;16.77;;;;;;;6.77;86.98;100042.25;5137473;27;20270;-66
2023/12/11 03:29:29;;;;;;;32.67;16.75;;;;;;;6.67;87.50;100044.84;5136955;27;20039;-66
2023/12/11 03:31:55;;;;;;;35.17;17.48;;;;;;;6.67;87.96;100044.84;5137148;27;20046;-66
2023/12/11 03:34:20;;;;;;;36.22;15.82;;;;;;;6.68;87.75;100048.28;5137817;27;20038;-64
2023/12/11 03:36:46;;;;;;;35.83;19.00;;;;;;;6.57;89.08;100043.94;5140975;27;20324;-64
2023/12/11 03:39:12;;;;;;;40.38;19.27;;;;;;;6.57;89.05;100046.56;5141137;27;20314;-66
2023/12/11 03:41:38;;;;;;;36.15;18.38;;;;;;;6.56;89.20;100041.44;5140954;27;20031;-64
2023/12/11 03:44:04;;;;;;;39.40;17.65;;;;;;;6.39;89.73;100043.69;5141136;27;20054;-64
2023/12/11 03:46:30;;;;;;;36.42;18.75;;;;;;;6.29;90.99;100045.41;5140891;27;20039;-63
2023/12/11 03:48:55;;;;;;;38.83;19.45;;;;;;;6.37;90.63;100042.16;5140362;27;20097;-63
2023/12/11 03:51:21;;;;;;;40.30;18.67;;;;;;;6.50;90.63;100053.31;5140479;27;20528;-65
2023/12/11 03:53:46;;;;;;;33.90;17.00;;;;;;;6.56;89.18;100047.53;5141098;27;20031;-64
2023/12/11 03:56:12;;;;;;;38.58;19.05;;;;;;;6.58;88.51;100047.41;5140928;27;20121;-66
2023/12/11 03:58:38;;;;;;;37.42;17.98;;;;;;;6.59;89.14;100038.56;5141002;27;20031;-63
2023/12/11 04:01:03;;;;;;;38.33;17.88;;;;;;;6.60;88.85;100045.47;5140693;27;20685;-66
2023/12/11 04:03:31;;;;;;;37.40;18.77;;;;;;;6.63;88.63;100043.41;5141327;27;20072;-64
2023/12/11 04:05:57;;;;;;;32.47;16.67;;;;;;;6.69;88.30;100040.28;5141477;27;20060;-63
2023/12/11 04:08:22;;;;;;;33.88;16.35;;;;;;;6.76;87.89;100043.22;5140846;27;20039;-66
2023/12/11 04:10:48;;;;;;;36.25;16.55;;;;;;;6.81;88.31;100048.94;5140010;27;20206;-64
2023/12/11 04:13:14;;;;;;;34.08;16.27;;;;;;;6.86;88.24;100044.09;5140850;27;20030;-64
2023/12/11 04:15:40;;;;;;;35.70;15.73;;;;;;;6.85;87.57;100054.75;5141126;27;20330;-66
2023/12/11 04:18:05;;;;;;;37.22;15.23;;;;;;;6.81;87.53;100054.19;5139509;27;20056;-63
2023/12/11 04:20:31;;;;;;;32.88;16.08;;;;;;;6.83;88.09;100056.69;5140843;27;20066;-66
2023/12/11 04:22:57;;;;;;;31.85;14.27;;;;;;;6.81;87.77;100063.88;5140906;27;20287;-66
2023/12/11 04:25:22;;;;;;;35.92;15.35;;;;;;;6.70;87.66;100052.47;5140820;27;20031;-67
2023/12/11 04:27:48;;;;;;;41.33;15.32;;;;;;;6.77;88.59;100065.09;5140658;27;20337;-66
2023/12/11 04:30:14;;;;;;;35.72;16.08;;;;;;;6.72;88.57;100060.22;5140009;27;20098;-65
2023/12/11 04:32:39;;;;;;;36.78;17.50;;;;;;;6.72;88.82;100058.44;5140893;27;20034;-64
2023/12/11 04:35:05;;;;;;;30.98;17.77;;;;;;;6.77;88.04;100065.94;5140368;27;20031;-66
2023/12/11 04:37:31;;;;;;;36.55;16.75;;;;;;;6.78;87.49;100082.56;5140925;27;20023;-63
2023/12/11 04:39:56;;;;;;;40.13;18.35;;;;;;;6.72;87.73;100081.28;5140309;27;20031;-66
2023/12/11 04:42:22;;;;;;;34.72;16.42;;;;;;;6.71;87.95;100085.72;5140169;27;20246;-66
2023/12/11 04:44:47;;;;;;;32.40;15.68;;;;;;;6.65;87.85;100080.13;5140636;27;20348;-64
2023/12/11 04:47:13;;;;;;;38.65;18.35;;;;;;;6.63;88.58;100089.94;5139363;27;20031;-64
2023/12/11 04:49:41;;;;;;;43.97;19.33;;;;;;;6.59;88.34;100091.16;5140461;27;20051;-64
2023/12/11 04:52:06;;;;;;;43.97;19.98;;;;;;;6.47;88.56;100084.31;5121695;27;20237;-66
2023/12/11 04:54:32;;;;;;;35.42;18.10;;;;;;;6.51;88.58;100088.34;5140334;27;20084;-64
2023/12/11 04:56:57;;;;;;;38.83;18.30;;;;;;;6.58;88.72;100082.44;5139743;27;20062;-65
2023/12/11 04:59:23;;;;;;;42.50;18.58;;;;;;;6.64;88.29;100081.09;5139701;27;20051;-64
2023/12/11 05:01:48;;;;;;;39.10;18.05;;;;;;;6.61;87.58;100087.44;5140258;27;20035;-63
2023/12/11 05:04:14;;;;;;;38.47;18.40;;;;;;;6.58;87.48;100090.34;5139728;27;20341;-63
2023/12/11 05:06:39;;;;;;;40.83;18.85;;;;;;;6.60;87.78;100093.69;5140206;27;20392;-66
2023/12/11 05:09:05;;;;;;;39.95;19.15;;;;;;;6.59;86.88;100094.63;5139461;27;20039;-63
2023/12/11 05:11:30;;;;;;;44.28;21.13;;;;;;;6.54;87.41;100086.28;5139492;27;20039;-65
2023/12/11 05:13:56;;;;;;;45.50;20.90;;;;;;;6.50;86.92;100084.88;5139887;27;20035;-66
2023/12/11 05:16:21;;;;;;;44.33;20.80;;;;;;;6.47;87.04;100084.31;5139318;27;20042;-63
2023/12/11 05:18:47;;;;;;;43.42;20.08;;;;;;;6.37;86.71;100078.97;5140042;27;20385;-65
2023/12/11 05:21:13;;;;;;;42.00;19.35;;;;;;;6.33;86.77;100074.94;5139349;27;20042;-66
2023/12/11 05:23:38;;;;;;;31.73;15.68;;;;;;;6.35;86.77;100075.63;5139402;27;20031;-66
2023/12/11 05:26:04;;;;;;;34.75;16.65;;;;;;;6.34;84.84;100082.69;5138943;27;20027;-66
2023/12/11 05:28:30;;;;;;;38.67;19.17;;;;;;;6.27;84.56;100073.63;5138663;27;20023;-66
2023/12/11 05:30:55;;;;;;;38.72;19.27;;;;;;;6.24;85.48;100079.16;5138212;27;20058;-66
2023/12/11 05:33:21;;;;;;;40.58;19.23;;;;;;;6.25;85.61;100066.84;5138562;27;20042;-63
2023/12/11 05:35:46;;;;;;;44.78;21.33;;;;;;;6.20;85.71;100067.19;5138850;27;20043;-66
2023/12/11 05:38:12;;;;;;;42.58;19.25;;;;;;;6.04;86.24;100079.91;5138350;27;20035;-63
2023/12/11 05:40:38;;;;;;;54.80;31.45;;;;;;;6.02;86.69;100076.56;5138813;27;20031;-66
2023/12/11 05:43:03;;;;;;;66.75;34.17;;;;;;;6.05;86.12;100073.69;5139658;27;20043;-66
2023/12/11 05:45:29;;;;;;;64.60;35.05;;;;;;;5.95;86.68;100078.88;5138828;27;20062;-66
2023/12/11 05:47:54;;;;;;;51.28;26.30;;;;;;;5.89;87.09;100076.72;5138943;27;20080;-63
2023/12/11 05:50:20;;;;;;;62.13;33.03;;;;;;;5.93;85.85;100085.22;5138592;27;20401;-64
2023/12/11 05:52:45;;;;;;;58.47;27.45;;;;;;;5.78;86.96;100077.56;5138721;27;20265;-66
2023/12/11 05:55:11;;;;;;;71.88;36.65;;;;;;;5.80;86.71;100082.69;5138607;27;20568;-66
2023/12/11 05:57:37;;;;;;;56.13;26.80;;;;;;;5.76;86.97;100083.91;5138876;27;20112;-64
2023/12/11 06:00:03;;;;;;;50.22;25.20;;;;;;;5.83;86.94;100082.47;5137816;27;20063;-64
2023/12/11 06:02:29;;;;;;;47.03;24.92;;;;;;;5.90;87.36;100080.19;5139144;27;20035;-65
2023/12/11 06:04:55;;;;;;;48.80;20.50;;;;;;;5.96;86.33;100079.69;5120570;27;20055;-64
2023/12/11 06:07:20;;;;;;;47.47;23.88;;;;;;;5.91;86.95;100085.34;5139223;27;20041;-66
2023/12/11 06:09:46;;;;;;;47.50;26.35;;;;;;;5.97;85.75;100089.25;5138633;27;20237;-64
2023/12/11 06:12:11;;;;;;;58.10;25.88;;;;;;;6.02;85.88;100093.19;5136968;27;20088;-66
2023/12/11 06:14:43;;;;;;;50.15;24.15;;;;;;;6.05;85.46;100095.56;5138164;27;20035;-64
2023/12/11 06:17:09;;;;;;;47.38;24.77;;;;;;;6.07;85.81;100092.81;5158730;27;20065;-64
2023/12/11 06:19:34;;;;;;;47.40;23.00;;;;;;;6.01;86.39;100085.41;5159317;27;20026;-65
2023/12/11 06:22:00;;;;;;;55.80;24.50;;;;;;;5.93;85.21;100096.56;5158543;27;20232;-66
2023/12/11 06:24:25;;;;;;;45.00;23.83;;;;;;;5.91;86.20;100095.00;5158530;27;20079;-64
2023/12/11 06:26:51;;;;;;;46.17;23.70;;;;;;;5.96;86.07;100098.09;5158559;27;20034;-63
2023/12/11 06:29:16;;;;;;;43.20;21.08;;;;;;;5.96;85.63;100104.19;5158623;27;20049;-66
2023/12/11 06:31:42;;;;;;;41.83;21.80;;;;;;;5.93;85.27;100103.59;5159038;27;20056;-66
2023/12/11 06:34:08;;;;;;;48.65;23.70;;;;;;;5.82;85.85;100104.44;5159014;27;20054;-67
2023/12/11 06:36:33;;;;;;;46.30;23.30;;;;;;;5.75;86.18;100095.38;5158783;27;20305;-67
2023/12/11 06:38:59;;;;;;;45.63;20.83;;;;;;;5.79;86.35;100099.44;5158440;27;20034;-67
2023/12/11 06:41:24;;;;;;;43.53;22.75;;;;;;;5.70;87.40;100097.53;5159056;27;20079;-66
2023/12/11 06:43:54;;;;;;;54.63;25.85;;;;;;;5.72;87.32;100100.88;5158412;27;20022;-66
2023/12/11 06:46:20;;;;;;;59.83;28.13;;;;;;;5.84;87.74;100109.56;5158374;27;20191;-64
2023/12/11 06:48:46;;;;;;;56.33;25.98;;;;;;;5.85;88.32;100101.56;5159190;27;20046;-64
2023/12/11 06:51:15;;;;;;;52.47;23.00;;;;;;;5.85;88.01;100105.97;5158247;27;20062;-63
2023/12/11 06:53:41;;;;;;;42.80;23.33;;;;;;;5.88;87.72;100096.06;5159021;27;20117;-66
2023/12/11 06:56:07;;;;;;;55.28;24.90;;;;;;;5.97;87.72;100100.59;5158701;27;21108;-64
2023/12/11 06:58:33;;;;;;;44.03;23.10;;;;;;;6.01;88.07;100101.19;5158523;27;20093;-64
2023/12/11 07:00:59;;;;;;;48.60;23.02;;;;;;;5.89;88.55;100105.66;5158962;27;20095;-63
2023/12/11 07:03:25;;;;;;;61.08;28.27;;;;;;;5.81;88.98;100102.78;5159001;27;20531;-66
2023/12/11 07:05:51;;;;;;;61.17;29.88;;;;;;;5.88;89.64;100101.31;5158404;27;20031;-66
2023/12/11 07:08:17;;;;;;;115.68;45.63;;;;;;;6.02;89.13;100108.13;5158476;27;20080;-66
2023/12/11 07:10:42;;;;;;;59.70;29.95;;;;;;;6.09;89.03;100115.38;5160547;27;20034;-66
2023/12/11 07:13:08;;;;;;;59.05;28.45;;;;;;;6.08;88.96;100110.25;5162259;27;20102;-66
2023/12/11 07:15:33;;;;;;;84.63;38.22;;;;;;;6.16;88.93;100117.50;5162742;27;20061;-67
2023/12/11 07:17:59;;;;;;;111.07;47.03;;;;;;;6.03;88.92;100118.50;5162062;27;20057;-67
2023/12/11 07:20:24;;;;;;;72.88;38.17;;;;;;;6.16;89.21;100120.16;5162542;27;20067;-67
2023/12/11 07:22:50;;;;;;;71.70;35.80;;;;;;;6.22;89.23;100119.66;5144385;27;20397;-67
2023/12/11 07:25:16;;;;;;;96.70;43.65;;;;;;;6.25;89.12;100116.78;5162511;27;20272;-64
2023/12/11 07:27:43;;;;;;;75.82;40.00;;;;;;;6.24;88.26;100107.22;5162215;27;20248;-66
2023/12/11 07:30:09;;;;;;;79.70;39.58;;;;;;;5.96;90.08;100113.88;5162659;27;20278;-66
2023/12/11 07:32:35;;;;;;;102.90;45.17;;;;;;;5.97;89.99;100120.81;5162786;27;20356;-66
2023/12/11 07:35:01;;;;;;;66.43;32.78;;;;;;;5.94;91.36;100128.94;5161612;27;20073;-66
2023/12/11 07:37:26;;;;;;;76.47;33.80;;;;;;;6.06;90.61;100113.00;5162235;27;20039;-66
2023/12/11 07:39:52;;;;;;;98.43;37.75;;;;;;;6.14;90.74;100112.38;5162196;27;20026;-66
2023/12/11 07:42:17;;;;;;;62.45;27.30;;;;;;;6.27;90.40;100118.34;5161866;27;20059;-66
2023/12/11 07:44:43;;;;;;;47.05;22.90;;;;;;;6.40;89.98;100108.47;5162155;27;20045;-67
2023/12/11 07:47:09;;;;;;;44.10;23.75;;;;;;;6.49;89.21;100112.16;5161747;27;20060;-67
2023/12/11 07:49:34;;;;;;;49.42;23.13;;;;;;;6.65;88.31;100114.34;5161552;27;20336;-67
2023/12/11 07:52:02;;;;;;;48.22;21.73;;;;;;;6.74;87.88;100121.47;5162436;27;20034;-67
2023/12/11 07:54:27;;;;;;;92.68;41.47;;;;;;;6.82;87.62;100115.56;5162030;27;20363;-67
2023/12/11 07:56:53;;;;;;;55.90;23.88;;;;;;;6.86;86.74;100116.97;5161711;27;20323;-67
2023/12/11 07:59:18;;;;;;;50.97;22.27;;;;;;;6.78;86.35;100114.97;5161903;27;20052;-67
2023/12/11 08:01:44;;;;;;;49.88;21.98;;;;;;;6.72;86.07;100118.97;5161713;27;20106;-67
2023/12/11 08:04:10;;;;;;;45.72;20.67;;;;;;;6.14;87.81;100115.00;5161852;27;20050;-67
2023/12/11 08:06:42;;;;;;;45.38;19.48;;;;;;;6.24;88.72;100123.84;5162073;27;20031;-67
2023/12/11 08:09:08;;;;;;;52.00;20.80;;;;;;;6.15;89.33;100121.94;5161899;27;20053;-67
2023/12/11 08:11:34;;;;;;;52.53;22.55;;;;;;;6.15;89.28;100121.94;5162026;27;20042;-67
2023/12/11 08:13:59;;;;;;;51.17;21.42;;;;;;;6.27;89.75;100115.72;5162064;27;20223;-67
2023/12/11 08:16:25;;;;;;;54.17;22.67;;;;;;;6.33;88.99;100128.34;5161537;27;20034;-67
2023/12/11 08:18:51;;;;;;;52.97;22.20;;;;;;;6.56;88.11;100130.88;5160950;27;20049;-67
2023/12/11 08:21:16;;;;;;;47.75;21.25;;;;;;;6.21;88.71;100121.44;5160769;27;20031;-67
2023/12/11 08:23:47;;;;;;;46.35;20.85;;;;;;;6.06;90.42;100117.44;5161450;27;20072;-66
2023/12/11 08:26:20;;;;;;;47.13;20.98;;;;;;;6.27;89.81;100110.44;5160293;27;20035;-66
2023/12/11 08:28:46;;;;;;;53.30;21.15;;;;;;;6.40;90.00;100118.16;5161423;27;20093;-66
2023/12/11 08:31:12;;;;;;;52.85;24.63;;;;;;;6.37;90.72;100119.25;5160472;27;20106;-66
2023/12/11 08:33:37;;;;;;;49.33;22.63;;;;;;;6.25;90.13;100119.44;5160878;27;20321;-66
2023/12/11 08:36:04;;;;;;;49.17;21.95;;;;;;;6.08;90.75;100124.22;5160497;27;20030;-64
2023/12/11 08:38:30;;;;;;;50.05;22.77;;;;;;;6.16;90.86;100117.50;5160683;27;20197;-66
2023/12/11 08:40:55;;;;;;;50.67;21.77;;;;;;;6.42;89.97;100112.78;5160449;27;20038;-66
2023/12/11 08:43:21;;;;;;;58.10;26.27;;;;;;;6.55;89.27;100114.28;5159971;27;20023;-66
2023/12/11 08:45:47;;;;;;;46.38;21.23;;;;;;;6.70;89.32;100123.53;5160184;27;20061;-65
2023/12/11 08:48:13;;;;;;;46.75;21.63;;;;;;;6.84;88.84;100117.09;5160194;27;20027;-66
2023/12/11 08:50:39;;;;;;;43.63;20.80;;;;;;;6.89;88.47;100114.09;5159957;27;20239;-64
2023/12/11 08:53:05;;;;;;;52.40;22.88;;;;;;;6.74;87.96;100100.41;5159790;27;20061;-64
2023/12/11 08:55:31;;;;;;;54.63;22.63;;;;;;;6.93;88.12;100115.50;5160643;27;20031;-64
2023/12/11 08:57:56;;;;;;;48.65;21.55;;;;;;;7.07;87.97;100107.25;5160624;27;20473;-64
2023/12/11 09:00:22;;;;;;;51.53;23.98;;;;;;;7.18;87.27;100108.97;5161174;27;20038;-66
2023/12/11 09:02:48;;;;;;;49.20;22.88;;;;;;;7.16;86.94;100103.00;5160951;27;20052;-63
2023/12/11 09:05:14;;;;;;;46.55;21.63;;;;;;;7.22;87.02;100099.84;5160993;27;20057;-64
2023/12/11 09:07:40;;;;;;;49.05;22.42;;;;;;;7.24;86.33;100092.63;5160328;27;20404;-66
2023/12/11 09:10:07;;;;;;;51.08;22.92;;;;;;;7.18;85.69;100094.00;5160867;27;20045;-66
2023/12/11 09:12:32;;;;;;;53.47;22.52;;;;;;;7.16;86.73;100092.47;5160485;27;20335;-67
2023/12/11 09:14:58;;;;;;;50.22;22.23;;;;;;;7.03;87.37;100096.16;5160212;27;20063;-67
2023/12/11 09:17:24;;;;;;;53.67;22.38;;;;;;;7.03;87.87;100090.88;5159403;27;20324;-66
2023/12/11 09:19:49;;;;;;;52.85;22.45;;;;;;;6.89;87.38;100085.97;5159587;27;20038;-66
2023/12/11 09:22:14;;;;;;;50.50;21.45;;;;;;;6.86;87.92;100080.13;5160297;27;20043;-67
2023/12/11 09:24:40;;;;;;;54.92;23.23;;;;;;;6.85;88.27;100065.28;5159540;27;20027;-67
2023/12/11 09:27:07;;;;;;;46.40;21.75;;;;;;;6.84;89.51;100067.09;5159974;27;20041;-67
2023/12/11 09:29:33;;;;;;;50.65;21.90;;;;;;;6.83;88.13;100072.47;5159729;27;20047;-67
2023/12/11 09:31:59;;;;;;;53.17;23.17;;;;;;;6.84;90.34;100072.34;5160260;27;20030;-64
2023/12/11 09:34:24;;;;;;;51.05;24.67;;;;;;;6.67;92.48;100067.69;5160063;27;20052;-64
2023/12/11 09:36:49;;;;;;;49.13;23.42;;;;;;;6.65;91.63;100070.44;5159539;27;20019;-64
2023/12/11 09:39:15;;;;;;;52.35;24.88;;;;;;;6.71;90.91;100061.19;5159360;27;20038;-67
2023/12/11 09:41:43;;;;;;;55.00;24.33;;;;;;;6.78;91.46;100059.72;5159736;27;20054;-67
2023/12/11 09:44:09;;;;;;;48.40;22.00;;;;;;;6.97;90.55;100056.34;5160144;27;20034;-65
2023/12/11 09:46:47;;;;;;;52.42;23.88;;;;;;;7.13;90.73;100042.69;5159748;27;20040;-65
2023/12/11 09:49:13;;;;;;;53.83;24.27;;;;;;;7.28;88.79;100044.00;5159136;27;20062;-65
2023/12/11 09:51:38;;;;;;;57.72;24.73;;;;;;;7.35;88.49;100046.00;5158180;27;20034;-64
2023/12/11 09:54:05;;;;;;;52.95;23.92;;;;;;;7.52;88.92;100049.78;5159711;27;20042;-65
2023/12/11 09:56:31;;;;;;;60.08;25.58;;;;;;;7.58;87.10;100043.97;5159370;27;20241;-61
2023/12/11 09:58:57;;;;;;;54.40;24.70;;;;;;;7.58;86.32;100038.69;5158816;27;20031;-64
2023/12/11 10:01:23;;;;;;;61.28;29.55;;;;;;;7.66;86.90;100041.50;5158981;27;20378;-62
2023/12/11 10:03:49;;;;;;;54.22;26.58;;;;;;;7.72;86.86;100040.09;5159999;27;20344;-62
2023/12/11 10:06:14;;;;;;;55.40;26.77;;;;;;;7.70;86.58;100039.41;5159727;27;20042;-61
2023/12/11 10:08:44;;;;;;;59.17;27.40;;;;;;;7.79;87.01;100038.59;5159632;27;20027;-63
2023/12/11 10:11:14;;;;;;;55.03;24.75;;;;;;;7.91;86.14;100041.94;5158694;27;20026;-61
2023/12/11 10:13:40;;;;;;;61.45;27.25;;;;;;;7.92;85.69;100028.63;5158603;27;20101;-63
2023/12/11 10:16:35;;;;;;;59.03;27.63;;;;;;;8.01;84.63;100030.41;5158811;27;20061;-63
2023/12/11 10:19:01;;;;;;;51.25;24.65;;;;;;;7.90;86.38;100013.91;5158922;27;20261;-66
2023/12/11 10:21:35;;;;;;;60.53;24.52;;;;;;;7.65;86.45;100033.72;5159101;27;20079;-66
2023/12/11 10:24:05;;;;;;;57.75;24.52;;;;;;;7.58;87.43;100025.53;5159215;27;20065;-64
2023/12/11 10:26:52;;;;;;;59.50;27.23;;;;;;;7.62;86.72;100028.72;5159045;27;20071;-62
2023/12/11 10:29:30;;;;;;;59.72;26.83;;;;;;;7.72;86.46;100020.81;5158685;27;20070;-62
2023/12/11 10:32:04;;;;;;;52.67;26.33;;;;;;;7.63;86.60;100004.03;5159605;27;20034;-61
2023/12/11 10:34:43;;;;;;;59.05;26.48;;;;;;;7.81;86.56;100005.03;5159305;27;20505;-64
2023/12/11 10:37:17;;;;;;;60.10;28.45;;;;;;;7.82;86.66;99996.13;5158204;27;20030;-62
2023/12/11 10:39:55;;;;;;;54.30;26.02;;;;;;;7.76;86.55;99986.16;5158436;27;20031;-62
2023/12/11 10:42:20;;;;;;;64.47;26.63;;;;;;;7.86;86.40;99986.16;5158513;27;20043;-63
2023/12/11 10:44:46;;;;;;;60.85;27.35;;;;;;;7.93;86.27;99976.72;5157574;27;20027;-64
2023/12/11 10:47:12;;;;;;;60.58;26.67;;;;;;;8.00;86.88;99973.38;5157921;27;20034;-64
2023/12/11 10:49:39;;;;;;;62.30;26.92;;;;;;;7.99;86.92;99961.16;5158129;27;20046;-63
2023/12/11 10:52:05;;;;;;;60.72;26.27;;;;;;;8.05;86.57;99958.94;5158763;27;20031;-66
2023/12/11 10:54:31;;;;;;;57.88;26.48;;;;;;;8.04;87.50;99952.84;5158476;27;20131;-65
2023/12/11 10:57:01;;;;;;;56.17;25.92;;;;;;;8.14;87.77;99948.38;5158898;27;20327;-63
2023/12/11 10:59:30;;;;;;;51.20;23.50;;;;;;;8.06;86.78;99948.25;5159103;27;20031;-64
2023/12/11 11:01:58;;;;;;;55.10;23.60;;;;;;;8.20;85.35;99946.97;5159182;27;20058;-63
2023/12/11 11:04:26;;;;;;;55.17;25.40;;;;;;;7.84;88.48;99930.09;5158885;27;20221;-66
2023/12/11 11:06:59;;;;;;;53.60;24.45;;;;;;;7.61;91.55;99932.19;5159212;27;20027;-66
2023/12/11 11:09:58;;;;;;;57.40;25.08;;;;;;;7.43;91.62;99929.41;5158442;27;20057;-66
2023/12/11 11:12:35;;;;;;;56.80;26.83;;;;;;;7.61;90.74;99927.75;5158304;27;20322;-66
2023/12/11 11:15:00;;;;;;;58.00;24.73;;;;;;;7.74;90.68;99930.09;5158505;27;20041;-66